Список аэропортов
Фактическая погода:

09 декабря, 18:30
Температура: +10°C (+10.0*)
Ветер: перем. 1 м/с
Давление: *771 мм
неб. 600 м
Время (МСК)Темп. СВетерВлажностьДавлениеОблачностьОсадки
15:00+9ЮЗ, 2 м/с75%1030 гПас прояснениями
16:00+11ЮЗ, 1 м/с66%1029 гПаоблачно
17:00+12ЮЗ, 2 м/с58%1029 гПас прояснениями
18:00+13ЮЗ, 1 м/с53%1029 гПас прояснениями
19:00+12Штиль 59%1029 гПамалооблачно
20:00+9СВ, 1 м/с65%1030 гПамалооблачно
21:00+8С, 3 м/с61%1031 гПамалооблачно
22:00+8СВ, 3 м/с61%1032 гПамалооблачно
23:00+7СВ, 4 м/с65%1032 гПаясно
10 декабря
00:00+7СВ, 4 м/с68%1033 гПаясно
01:00+6СВ, 2 м/с76%1033 гПаясно
02:00+3С, 1 м/с88%1033 гПаясно
03:00+3СЗ, 2 м/с90%1033 гПаясно
04:00+1СЗ, 1 м/с96%1033 гПамалооблачно
05:000СВ, 1 м/с97%1033 гПаясно
06:000СВ, 1 м/с97%1033 гПаясно
07:000СЗ, 2 м/с97%1033 гПаясно
08:00-0С, 1 м/с97%1033 гПамалооблачно
09:00-1СЗ, 2 м/с97%1033 гПамалооблачно
10:00-1С, 1 м/с97%1033 гПамалооблачно
11:00-1С, 1 м/с97%1033 гПас прояснениями
12:00-0С, 1 м/с95%1032 гПаоблачно
13:00+2СВ, 1 м/с89%1031 гПаоблачно
14:00+5В, 1 м/с77%1029 гПас прояснениями
15:00+7З, 1 м/с70%1028 гПаоблачно
16:00+8З, 1 м/с64%1027 гПаоблачно
17:00+9З, 1 м/с58%1027 гПаоблачно
18:00+10ЮЗ, 1 м/с56%1026 гПаоблачно
19:00+10Ю, 1 м/с57%1026 гПаоблачно
20:00+7Ю, 1 м/с70%1027 гПас прояснениями
21:00+6Штиль 76%1027 гПас прояснениями
22:00+5Штиль 78%1027 гПаоблачно
23:00+5Штиль 79%1027 гПаоблачно
11 декабря
00:00+4Штиль 86%1028 гПас прояснениями
01:00+3Штиль 89%1027 гПаоблачно
02:00+3СВ, 1 м/с89%1027 гПас прояснениями
03:00+2СВ, 1 м/с92%1027 гПамалооблачно
04:00+2В, 1 м/с94%1027 гПамалооблачно
05:00+2СВ, 1 м/с95%1026 гПаоблачно
06:00+1С, 1 м/с96%1026 гПаоблачно
07:00+1С, 1 м/с97%1025 гПаоблачно
08:00+1СВ, 1 м/с96%1025 гПаоблачно
09:00+1СВ, 1 м/с94%1025 гПаоблачно
10:00+2Штиль 90%1025 гПаоблачно
11:00+1Штиль 96%1025 гПамалооблачносл. дождь
12:00+2СЗ, 1 м/с90%1025 гПаоблачнодождь
13:00+3Ю, 2 м/с88%1023 гПаоблачнодождь
14:00+4ЮЗ, 2 м/с87%1023 гПаоблачнодождь
15:00+5З, 3 м/с85%1023 гПаоблачно